MSC Nuria — 3ESE2 — position and weather

sailwx.info

Track history (hours):
 
Tides and Currents Weather Stations Pressure Air Temp Water Temp Dewpoint Dewpoint Depression Visibility Wind Speed Wind Dir Waves Ship Positions

MSC Nuria

Last reported at 2017-Nov-15 23:25 UTC. Time now 2017-Nov-20 07:50 UTC.
Position N 24°19' E 119°01'.

Length 275 m; draft 10 m.

Type: Ship (hazmat cat A). MMSI: 370272977.

Date/timePositionNaut miles runAvg speedWind from/ knotsBaromVisibWave heightAir tempDewpointWater temp
2017-Nov-15 23:25N 24°19' E 119°01'2820.3
2017-Nov-15 22:02N 24°03' E 118°36'121.1
2017-Nov-15 21:59N 24°02' E 118°35'19019.8
2017-Nov-15 12:24N 22°21' E 115°40'919.8
2017-Nov-15 11:57N 22°17' E 115°31'919.6
2017-Nov-15 11:30N 22°16' E 115°22'1020.0
2017-Nov-15 11:00N 22°15' E 115°11'1019.9
2017-Nov-15 10:31N 22°14' E 115°00'1019.6
2017-Nov-15 10:00N 22°14' E 114°50'918.9
2017-Nov-15 09:30N 22°18' E 114°41'1019.3
2017-Nov-15 09:00N 22°23' E 114°31'815.5
2017-Nov-15 08:31N 22°29' E 114°26'510.6
2017-Nov-15 08:00N 22°32' E 114°21'611.2
2017-Nov-15 07:30N 22°34' E 114°16'0 0.5
2017-Nov-15 06:59N 22°34' E 114°16'0 0.0
2017-Nov-15 06:26N 22°34' E 114°16'0 0.0
2017-Nov-15 05:56N 22°34' E 114°16'0 0.0
2017-Nov-15 05:26N 22°34' E 114°16'0 0.0
2017-Nov-15 04:58N 22°34' E 114°16'0 0.0
2017-Nov-15 04:25N 22°34' E 114°16'0 0.0
2017-Nov-15 03:58N 22°34' E 114°16'0 0.0
2017-Nov-15 03:25N 22°34' E 114°16'0 0.0
2017-Nov-15 02:58N 22°34' E 114°16'0 0.0
2017-Nov-15 02:30N 22°34' E 114°16'0 0.0
2017-Nov-15 02:00N 22°34' E 114°16'0 0.0
2017-Nov-15 01:30N 22°34' E 114°16'0 0.0
2017-Nov-15 01:00N 22°34' E 114°16'0 0.0
2017-Nov-15 00:23N 22°34' E 114°16'0 0.0
2017-Nov-14 23:59N 22°34' E 114°16'0 0.0
2017-Nov-14 23:29N 22°34' E 114°16'0 0.0
2017-Nov-14 22:59N 22°34' E 114°16'0 0.0
2017-Nov-14 22:29N 22°34' E 114°16'0 0.0
2017-Nov-14 21:58N 22°34' E 114°16'0 0.0
2017-Nov-14 21:28N 22°34' E 114°16'0 0.0
2017-Nov-14 20:52N 22°34' E 114°16'0 0.0
2017-Nov-14 20:22N 22°34' E 114°16'0 0.0
2017-Nov-14 19:58N 22°34' E 114°16'0 0.0
2017-Nov-14 19:27N 22°34' E 114°16'0 0.3
2017-Nov-14 19:01N 22°34' E 114°16'3 5.6
2017-Nov-14 18:30N 22°34' E 114°19'713.3
2017-Nov-14 18:00N 22°30' E 114°25'510.8
2017-Nov-14 17:30N 22°26' E 114°29'815.3
2017-Nov-14 17:00N 22°21' E 114°35'713.8
2017-Nov-14 16:30N 22°19' E 114°42'713.3
2017-Nov-14 16:01N 22°19' E 114°49'713.5
2017-Nov-14 15:31N 22°20' E 114°56'713.4
2017-Nov-14 15:01N 22°20' E 115°03'713.4
2017-Nov-14 14:31N 22°21' E 115°11'713.6
2017-Nov-14 14:00N 22°22' E 115°18'713.8
2017-Nov-14 13:29N 22°24' E 115°25'913.6
2017-Nov-14 12:47N 22°25' E 115°36'17613.9
2017-Nov-14 00:10N 24°01' E 118°16'319.1
2017-Nov-14 00:00N 24°04' E 118°18'815.7
2017-Nov-13 23:30N 24°11' E 118°19'714.4
2017-Nov-13 23:00N 24°17' E 118°13'713.2
2017-Nov-13 22:30N 24°22' E 118°09'5 9.7
2017-Nov-13 22:00N 24°25' E 118°05'42811.7
2017-Nov-12 09:24N 30°34' E 122°10'6 0.5
2017-Nov-11 20:01N 30°37' E 122°04'2 7.2
2017-Nov-11 19:41N 30°36' E 122°06'510.4
2017-Nov-11 19:14N 30°34' E 122°11'  
Track history (hours):
 
Tides and Currents Weather Stations Pressure Air Temp Water Temp Dewpoint Dewpoint Depression Visibility Wind Speed Wind Dir Waves Ship Positions

MSC Nuria

Last reported at 2017-Nov-15 23:25 UTC. Time now 2017-Nov-20 07:50 UTC.
Position N 24°19' E 119°01'.

Length 275 m; draft 10 m.

Type: Ship (hazmat cat A). MMSI: 370272977.

Date/timePositionNaut miles runAvg speedWind from/ knotsBaromVisibWave heightAir tempDewpointWater temp
2017-Nov-15 23:25N 24°19' E 119°01'2820.3
2017-Nov-15 22:02N 24°03' E 118°36'121.1
2017-Nov-15 21:59N 24°02' E 118°35'19019.8
2017-Nov-15 12:24N 22°21' E 115°40'919.8
2017-Nov-15 11:57N 22°17' E 115°31'919.6
2017-Nov-15 11:30N 22°16' E 115°22'1020.0
2017-Nov-15 11:00N 22°15' E 115°11'1019.9
2017-Nov-15 10:31N 22°14' E 115°00'1019.6
2017-Nov-15 10:00N 22°14' E 114°50'918.9
2017-Nov-15 09:30N 22°18' E 114°41'1019.3
2017-Nov-15 09:00N 22°23' E 114°31'815.5
2017-Nov-15 08:31N 22°29' E 114°26'510.6
2017-Nov-15 08:00N 22°32' E 114°21'611.2
2017-Nov-15 07:30N 22°34' E 114°16'0 0.5
2017-Nov-15 06:59N 22°34' E 114°16'0 0.0
2017-Nov-15 06:26N 22°34' E 114°16'0 0.0
2017-Nov-15 05:56N 22°34' E 114°16'0 0.0
2017-Nov-15 05:26N 22°34' E 114°16'0 0.0
2017-Nov-15 04:58N 22°34' E 114°16'0 0.0
2017-Nov-15 04:25N 22°34' E 114°16'0 0.0
2017-Nov-15 03:58N 22°34' E 114°16'0 0.0
2017-Nov-15 03:25N 22°34' E 114°16'0 0.0
2017-Nov-15 02:58N 22°34' E 114°16'0 0.0
2017-Nov-15 02:30N 22°34' E 114°16'0 0.0
2017-Nov-15 02:00N 22°34' E 114°16'0 0.0
2017-Nov-15 01:30N 22°34' E 114°16'0 0.0
2017-Nov-15 01:00N 22°34' E 114°16'0 0.0
2017-Nov-15 00:23N 22°34' E 114°16'0 0.0
2017-Nov-14 23:59N 22°34' E 114°16'0 0.0
2017-Nov-14 23:29N 22°34' E 114°16'0 0.0
2017-Nov-14 22:59N 22°34' E 114°16'0 0.0
2017-Nov-14 22:29N 22°34' E 114°16'0 0.0
2017-Nov-14 21:58N 22°34' E 114°16'0 0.0
2017-Nov-14 21:28N 22°34' E 114°16'0 0.0
2017-Nov-14 20:52N 22°34' E 114°16'0 0.0
2017-Nov-14 20:22N 22°34' E 114°16'0 0.0
2017-Nov-14 19:58N 22°34' E 114°16'0 0.0
2017-Nov-14 19:27N 22°34' E 114°16'0 0.3
2017-Nov-14 19:01N 22°34' E 114°16'3 5.6
2017-Nov-14 18:30N 22°34' E 114°19'713.3
2017-Nov-14 18:00N 22°30' E 114°25'510.8
2017-Nov-14 17:30N 22°26' E 114°29'815.3
2017-Nov-14 17:00N 22°21' E 114°35'713.8
2017-Nov-14 16:30N 22°19' E 114°42'713.3
2017-Nov-14 16:01N 22°19' E 114°49'713.5
2017-Nov-14 15:31N 22°20' E 114°56'713.4
2017-Nov-14 15:01N 22°20' E 115°03'713.4
2017-Nov-14 14:31N 22°21' E 115°11'713.6
2017-Nov-14 14:00N 22°22' E 115°18'713.8
2017-Nov-14 13:29N 22°24' E 115°25'913.6
2017-Nov-14 12:47N 22°25' E 115°36'17613.9
2017-Nov-14 00:10N 24°01' E 118°16'319.1
2017-Nov-14 00:00N 24°04' E 118°18'815.7
2017-Nov-13 23:30N 24°11' E 118°19'714.4
2017-Nov-13 23:00N 24°17' E 118°13'713.2
2017-Nov-13 22:30N 24°22' E 118°09'5 9.7
2017-Nov-13 22:00N 24°25' E 118°05'42811.7
2017-Nov-12 09:24N 30°34' E 122°10'6 0.5
2017-Nov-11 20:01N 30°37' E 122°04'2 7.2
2017-Nov-11 19:41N 30°36' E 122°06'510.4
2017-Nov-11 19:14N 30°34' E 122°11'  

Dump ship's entire track history